Terminal Aerodrome Forecast
Issued by NWS Sioux Falls, SD

Home | Current Version | Previous Version | Text Only | Print | Product List | Glossary Off
Versions: 1 2 3 4 5 6 7 8 9 10 11 12 13 14 15

216
FTUS43 KFSD 171125
TAFFSD
TAF
KFSD 171125Z 1712/1812 18003KT P6SM SKC
      TEMPO 1712/1714 5SM BR
     FM171700 26006KT P6SM SKC
     FM172000 28009KT P6SM SCT250=

USA.gov is the U.S. government's official web portal to all federal, state and local government web resources and services.